createdAt,value
2022-12-18T00:00:37.008Z,1007.21
2022-12-18T00:01:37.078Z,1007.23
2022-12-18T00:02:37.116Z,1007.18
2022-12-18T00:03:37.448Z,1007.21
2022-12-18T00:04:36.995Z,1007.17
2022-12-18T00:05:36.991Z,1007.20
2022-12-18T00:06:37.006Z,1007.23
2022-12-18T00:07:37.004Z,1007.20
2022-12-18T00:08:36.964Z,1007.21
2022-12-18T00:09:40.344Z,1007.19
2022-12-18T00:10:36.955Z,1007.25
2022-12-18T00:11:36.962Z,1007.16
2022-12-18T00:12:36.959Z,1007.24
2022-12-18T00:13:37.310Z,1007.21
2022-12-18T00:14:36.938Z,1007.29
2022-12-18T00:15:36.928Z,1007.28
2022-12-18T00:16:36.990Z,1007.31
2022-12-18T00:17:36.931Z,1007.32
2022-12-18T00:18:37.317Z,1007.32
2022-12-18T00:19:36.905Z,1007.31
2022-12-18T00:20:36.899Z,1007.35
2022-12-18T00:21:36.891Z,1007.31
2022-12-18T00:22:36.879Z,1007.29
2022-12-18T00:23:37.329Z,1007.34
2022-12-18T00:24:36.870Z,1007.34
2022-12-18T00:25:36.867Z,1007.38
2022-12-18T00:26:36.878Z,1007.33
2022-12-18T00:27:36.856Z,1007.38
2022-12-18T00:28:36.856Z,1007.40
2022-12-18T00:29:36.862Z,1007.41
2022-12-18T00:30:36.845Z,1007.34
2022-12-18T00:31:36.906Z,1007.31
2022-12-18T00:32:36.823Z,1007.35
2022-12-18T00:33:37.226Z,1007.35
2022-12-18T00:34:36.819Z,1007.34
2022-12-18T00:35:36.817Z,1007.28
2022-12-18T00:36:36.806Z,1007.34
2022-12-18T00:37:36.804Z,1007.30
2022-12-18T00:38:36.808Z,1007.25
2022-12-18T00:39:36.802Z,1007.32
2022-12-18T00:40:36.800Z,1007.28
2022-12-18T00:41:36.782Z,1007.29
2022-12-18T00:42:36.773Z,1007.35
2022-12-18T00:43:37.296Z,1007.36
2022-12-18T00:44:36.789Z,1007.38
2022-12-18T00:45:36.796Z,1007.35
2022-12-18T00:46:36.751Z,1007.29
2022-12-18T00:47:36.743Z,1007.30
2022-12-18T00:48:36.751Z,1007.34
2022-12-18T00:49:36.731Z,1007.31
2022-12-18T00:50:36.741Z,1007.27
2022-12-18T00:51:36.716Z,1007.36
2022-12-18T00:52:36.734Z,1007.37
2022-12-18T00:53:37.030Z,1007.38
2022-12-18T00:54:36.707Z,1007.30
2022-12-18T00:55:36.695Z,1007.37
2022-12-18T00:56:39.381Z,1007.41
2022-12-18T00:57:37.692Z,1007.42
2022-12-18T00:58:36.678Z,1007.37
2022-12-18T00:59:36.693Z,1007.38
2022-12-18T01:00:36.761Z,1007.41
2022-12-18T01:01:36.736Z,1007.45
2022-12-18T01:02:36.720Z,1007.38
2022-12-18T01:03:36.896Z,1007.40
2022-12-18T01:04:36.742Z,1007.44
2022-12-18T01:05:36.638Z,1007.46
2022-12-18T01:06:36.635Z,1007.40
2022-12-18T01:07:36.631Z,1007.33
2022-12-18T01:08:36.631Z,1007.39
2022-12-18T01:09:36.631Z,1007.33
2022-12-18T01:10:36.630Z,1007.36
2022-12-18T01:11:36.600Z,1007.40
2022-12-18T01:12:36.602Z,1007.41
2022-12-18T01:13:37.016Z,1007.44
2022-12-18T01:14:36.605Z,1007.43
2022-12-18T01:15:36.578Z,1007.50
2022-12-18T01:16:36.651Z,1007.58
2022-12-18T01:17:36.562Z,1007.57
2022-12-18T01:18:36.588Z,1007.64
2022-12-18T01:19:36.575Z,1007.60
2022-12-18T01:20:36.563Z,1007.57
2022-12-18T01:21:36.550Z,1007.58
2022-12-18T01:22:36.530Z,1007.57
2022-12-18T01:23:37.003Z,1007.60
2022-12-18T01:24:36.532Z,1007.56
2022-12-18T01:25:36.544Z,1007.63
2022-12-18T01:26:36.559Z,1007.64
2022-12-18T01:27:36.513Z,1007.64
2022-12-18T01:28:36.508Z,1007.63
2022-12-18T01:29:36.499Z,1007.62
2022-12-18T01:30:36.522Z,1007.64
2022-12-18T01:31:36.548Z,1007.62
2022-12-18T01:32:36.488Z,1007.66
2022-12-18T01:33:36.822Z,1007.63
2022-12-18T01:34:36.474Z,1007.70
2022-12-18T01:35:36.468Z,1007.68
2022-12-18T01:36:36.453Z,1007.69
2022-12-18T01:37:36.494Z,1007.70
2022-12-18T01:38:36.462Z,1007.65
2022-12-18T01:39:36.434Z,1007.82
2022-12-18T01:40:36.442Z,1007.67
2022-12-18T01:41:36.432Z,1007.70
2022-12-18T01:42:36.427Z,1007.70
2022-12-18T01:43:36.852Z,1007.71
2022-12-18T01:44:36.421Z,1007.68
2022-12-18T01:45:36.436Z,1007.75
2022-12-18T01:46:36.410Z,1007.77
2022-12-18T01:47:36.402Z,1007.67
2022-12-18T01:48:36.415Z,1007.64
2022-12-18T01:49:36.390Z,1007.63
2022-12-18T01:50:36.378Z,1007.66
2022-12-18T01:51:36.374Z,1007.66
2022-12-18T01:52:36.377Z,1007.63
2022-12-18T01:53:36.725Z,1007.66
2022-12-18T01:54:36.355Z,1007.68
2022-12-18T01:55:36.362Z,1007.65
2022-12-18T01:56:36.346Z,1007.60
2022-12-18T01:57:36.330Z,1007.60
2022-12-18T01:58:36.343Z,1007.65
2022-12-18T01:59:36.335Z,1007.55
2022-12-18T02:00:36.315Z,1007.58
2022-12-18T02:01:36.457Z,1007.57
2022-12-18T02:02:36.493Z,1007.60
2022-12-18T02:03:36.761Z,1007.60
2022-12-18T02:04:36.323Z,1007.62
2022-12-18T02:05:36.301Z,1007.61
2022-12-18T02:06:36.294Z,1007.60
2022-12-18T02:07:36.282Z,1007.57
2022-12-18T02:08:36.275Z,1007.59
2022-12-18T02:09:36.278Z,1007.56
2022-12-18T02:10:36.276Z,1007.63
2022-12-18T02:11:36.258Z,1007.65
2022-12-18T02:12:36.330Z,1007.58
2022-12-18T02:13:37.543Z,1007.58
2022-12-18T02:14:36.243Z,1007.65
2022-12-18T02:15:36.251Z,1007.49
2022-12-18T02:16:36.269Z,1007.60
2022-12-18T02:17:36.222Z,1007.67
2022-12-18T02:18:36.218Z,1007.61
2022-12-18T02:19:36.213Z,1007.53
2022-12-18T02:20:36.233Z,1007.55
2022-12-18T02:21:36.203Z,1007.60
2022-12-18T02:22:36.202Z,1007.47
2022-12-18T02:23:36.679Z,1007.49
2022-12-18T02:24:36.178Z,1007.49
2022-12-18T02:25:36.203Z,1007.55
2022-12-18T02:26:36.194Z,1007.50
2022-12-18T02:27:36.171Z,1007.52
2022-12-18T02:28:36.260Z,1007.56
2022-12-18T02:29:36.162Z,1007.57
2022-12-18T02:30:36.191Z,1007.55
2022-12-18T02:31:36.152Z,1007.60
2022-12-18T02:32:36.147Z,1007.64
2022-12-18T02:33:36.574Z,1007.53
2022-12-18T02:34:36.134Z,1007.59
2022-12-18T02:35:36.156Z,1007.60
2022-12-18T02:36:36.127Z,1007.56
2022-12-18T02:37:36.159Z,1007.50
2022-12-18T02:38:36.115Z,1007.52
2022-12-18T02:39:36.103Z,1007.53
2022-12-18T02:40:36.153Z,1007.50
2022-12-18T02:41:36.087Z,1007.56
2022-12-18T02:42:36.086Z,1007.64
2022-12-18T02:43:36.277Z,1007.59
2022-12-18T02:44:36.173Z,1007.51
2022-12-18T02:45:36.176Z,1007.48
2022-12-18T02:46:36.078Z,1007.42
2022-12-18T02:47:36.070Z,1007.41
2022-12-18T02:48:36.059Z,1007.41
2022-12-18T02:49:36.051Z,1007.42
2022-12-18T02:50:36.056Z,1007.41
2022-12-18T02:51:36.063Z,1007.41
2022-12-18T02:52:36.075Z,1007.46
2022-12-18T02:53:36.330Z,1007.48
2022-12-18T02:54:36.022Z,1007.51
2022-12-18T02:55:36.030Z,1007.54
2022-12-18T02:56:36.015Z,1007.61
2022-12-18T02:57:36.025Z,1007.63
2022-12-18T02:58:36.005Z,1007.63
2022-12-18T02:59:36.000Z,1007.58
2022-12-18T03:00:36.098Z,1007.61
2022-12-18T03:01:36.145Z,1007.65
2022-12-18T03:02:36.143Z,1007.59
2022-12-18T03:03:36.351Z,1007.69
2022-12-18T03:04:35.966Z,1007.63
2022-12-18T03:05:35.946Z,1007.64
2022-12-18T03:06:35.959Z,1007.62
2022-12-18T03:07:35.963Z,1007.55
2022-12-18T03:08:35.938Z,1007.52
2022-12-18T03:09:35.950Z,1007.51
2022-12-18T03:10:35.934Z,1007.48
2022-12-18T03:11:35.927Z,1007.45
2022-12-18T03:12:35.930Z,1007.44
2022-12-18T03:13:36.301Z,1007.39
2022-12-18T03:14:35.910Z,1007.40
2022-12-18T03:15:35.904Z,1007.42
2022-12-18T03:16:36.037Z,1007.40
2022-12-18T03:17:36.057Z,1007.38
2022-12-18T03:18:35.889Z,1007.39
2022-12-18T03:19:35.884Z,1007.36
2022-12-18T03:20:35.901Z,1007.31
2022-12-18T03:21:35.866Z,1007.42
2022-12-18T03:22:35.901Z,1007.44
2022-12-18T03:23:35.866Z,1007.43
2022-12-18T03:24:36.406Z,1007.44
2022-12-18T03:25:35.850Z,1007.48
2022-12-18T03:26:35.839Z,1007.48
2022-12-18T03:27:35.838Z,1007.49
2022-12-18T03:28:35.832Z,1007.46
2022-12-18T03:29:35.825Z,1007.40
2022-12-18T03:30:35.859Z,1007.36
2022-12-18T03:31:35.814Z,1007.39
2022-12-18T03:32:35.921Z,1007.32
2022-12-18T03:33:36.120Z,1007.31
2022-12-18T03:34:35.818Z,1007.29
2022-12-18T03:35:35.791Z,1007.37
2022-12-18T03:36:35.775Z,1007.29
2022-12-18T03:37:35.782Z,1007.37
2022-12-18T03:38:35.766Z,1007.46
2022-12-18T03:39:35.753Z,1007.41
2022-12-18T03:40:35.769Z,1007.46
2022-12-18T03:41:35.751Z,1007.40
2022-12-18T03:42:35.746Z,1007.41
2022-12-18T03:43:35.771Z,1007.38
2022-12-18T03:44:35.731Z,1007.33
2022-12-18T03:45:35.738Z,1007.38
2022-12-18T03:46:35.717Z,1007.38
2022-12-18T03:47:35.722Z,1007.41
2022-12-18T03:48:35.821Z,1007.39
2022-12-18T03:49:35.706Z,1007.40
2022-12-18T03:50:35.706Z,1007.33
2022-12-18T03:51:35.694Z,1007.32
2022-12-18T03:52:35.687Z,1007.37
2022-12-18T03:53:35.705Z,1007.37
2022-12-18T03:54:35.674Z,1007.34
2022-12-18T03:55:35.675Z,1007.40
2022-12-18T03:56:35.670Z,1007.32
2022-12-18T03:57:35.661Z,1007.36
2022-12-18T03:58:35.678Z,1007.33
2022-12-18T03:59:35.654Z,1007.35
2022-12-18T04:00:35.647Z,1007.40
2022-12-18T04:01:35.730Z,1007.41
2022-12-18T04:02:35.814Z,1007.45
2022-12-18T04:03:36.520Z,1007.43
2022-12-18T04:04:36.727Z,1007.45
2022-12-18T04:05:35.622Z,1007.40
2022-12-18T04:06:35.616Z,1007.37
2022-12-18T04:07:36.382Z,1007.31
2022-12-18T04:08:35.620Z,1007.36
2022-12-18T04:09:35.604Z,1007.41
2022-12-18T04:10:35.590Z,1007.40
2022-12-18T04:11:35.588Z,1007.38
2022-12-18T04:12:35.574Z,1007.41
2022-12-18T04:13:35.568Z,1007.38
2022-12-18T04:14:35.595Z,1007.34
2022-12-18T04:15:35.730Z,1007.28
2022-12-18T04:16:35.555Z,1007.27
2022-12-18T04:17:35.549Z,1007.30
2022-12-18T04:18:35.541Z,1007.33
2022-12-18T04:19:35.551Z,1007.27
2022-12-18T04:20:35.628Z,1007.31
2022-12-18T04:21:35.546Z,1007.35
2022-12-18T04:22:35.530Z,1007.45
2022-12-18T04:23:35.524Z,1007.40
2022-12-18T04:24:35.518Z,1007.42
2022-12-18T04:25:35.503Z,1007.44
2022-12-18T04:26:35.510Z,1007.46
2022-12-18T04:27:35.499Z,1007.49
2022-12-18T04:28:35.492Z,1007.51
2022-12-18T04:29:35.482Z,1007.41
2022-12-18T04:30:35.496Z,1007.46
2022-12-18T04:31:35.551Z,1007.44
2022-12-18T04:32:35.493Z,1007.46
2022-12-18T04:33:35.452Z,1007.43
2022-12-18T04:34:35.441Z,1007.43
2022-12-18T04:35:35.455Z,1007.51
2022-12-18T04:36:35.564Z,1007.50
2022-12-18T04:37:35.418Z,1007.45
2022-12-18T04:38:35.422Z,1007.48
2022-12-18T04:39:35.414Z,1007.40
2022-12-18T04:40:35.413Z,1007.40
2022-12-18T04:41:35.410Z,1007.45
2022-12-18T04:42:35.501Z,1007.42
2022-12-18T04:43:35.402Z,1007.42
2022-12-18T04:44:35.394Z,1007.35
2022-12-18T04:45:35.401Z,1007.44
2022-12-18T04:46:35.415Z,1007.34
2022-12-18T04:47:35.381Z,1007.38
2022-12-18T04:48:35.370Z,1007.40
2022-12-18T04:49:35.388Z,1007.43
2022-12-18T04:50:35.381Z,1007.40
2022-12-18T04:51:35.346Z,1007.50
2022-12-18T04:52:35.433Z,1007.49
2022-12-18T04:53:35.346Z,1007.55
2022-12-18T04:54:35.338Z,1007.58
2022-12-18T04:55:35.346Z,1007.58
2022-12-18T04:56:35.353Z,1007.56
2022-12-18T04:57:35.323Z,1007.57
2022-12-18T04:58:35.307Z,1007.66
2022-12-18T04:59:35.295Z,1007.64
2022-12-18T05:00:35.286Z,1007.65
2022-12-18T05:01:35.562Z,1007.70
2022-12-18T05:02:35.430Z,1007.67
2022-12-18T05:03:35.369Z,1007.70
2022-12-18T05:04:35.275Z,1007.69
2022-12-18T05:05:35.270Z,1007.72
2022-12-18T05:06:35.262Z,1007.69
2022-12-18T05:07:35.241Z,1007.64
2022-12-18T05:08:35.329Z,1007.67
2022-12-18T05:09:35.242Z,1007.70
2022-12-18T05:10:38.346Z,1007.73
2022-12-18T05:11:36.233Z,1007.62
2022-12-18T05:12:35.234Z,1007.62
2022-12-18T05:13:35.214Z,1007.62
2022-12-18T05:14:35.215Z,1007.68
2022-12-18T05:15:35.299Z,1007.66
2022-12-18T05:16:35.230Z,1007.69
2022-12-18T05:17:35.222Z,1007.67
2022-12-18T05:18:35.190Z,1007.64
2022-12-18T05:19:35.178Z,1007.67
2022-12-18T05:20:35.176Z,1007.69
2022-12-18T05:21:35.174Z,1007.71
2022-12-18T05:22:35.180Z,1007.73
2022-12-18T05:23:35.174Z,1007.75
2022-12-18T05:24:35.247Z,1007.76
2022-12-18T05:25:35.138Z,1007.78
2022-12-18T05:26:35.138Z,1007.71
2022-12-18T05:27:35.136Z,1007.79
2022-12-18T05:28:35.144Z,1007.81
2022-12-18T05:29:35.119Z,1007.82
2022-12-18T05:30:35.118Z,1007.83
2022-12-18T05:31:39.422Z,1007.83
2022-12-18T05:32:36.109Z,1007.87
2022-12-18T05:33:35.121Z,1007.78
2022-12-18T05:34:35.090Z,1007.84
2022-12-18T05:35:35.083Z,1007.79
2022-12-18T05:36:35.086Z,1007.80
2022-12-18T05:37:41.045Z,1007.74
2022-12-18T05:38:37.082Z,1007.80
2022-12-18T05:39:35.066Z,1007.77
2022-12-18T05:40:35.160Z,1007.75
2022-12-18T05:41:35.087Z,1007.77
2022-12-18T05:42:35.042Z,1007.73
2022-12-18T05:43:35.042Z,1007.65
2022-12-18T05:44:35.042Z,1007.66
2022-12-18T05:45:35.030Z,1007.66
2022-12-18T05:46:35.061Z,1007.68
2022-12-18T05:47:35.013Z,1007.64
2022-12-18T05:48:35.006Z,1007.61
2022-12-18T05:49:35.009Z,1007.64
2022-12-18T05:50:34.993Z,1007.57
2022-12-18T05:51:34.985Z,1007.60
2022-12-18T05:52:34.980Z,1007.59
2022-12-18T05:53:34.972Z,1007.63
2022-12-18T05:54:34.978Z,1007.61
2022-12-18T05:55:34.962Z,1007.61
2022-12-18T05:56:35.032Z,1007.63
2022-12-18T05:57:35.940Z,1007.57
2022-12-18T05:58:35.947Z,1007.61
2022-12-18T05:59:34.942Z,1007.61
2022-12-18T06:00:34.926Z,1007.65
2022-12-18T06:01:35.068Z,1007.73
2022-12-18T06:02:34.973Z,1007.60
2022-12-18T06:03:35.003Z,1007.66
2022-12-18T06:04:34.914Z,1007.69
2022-12-18T06:05:34.902Z,1007.75
2022-12-18T06:06:34.897Z,1007.67
2022-12-18T06:07:34.890Z,1007.70
2022-12-18T06:08:34.882Z,1007.72
2022-12-18T06:09:34.893Z,1007.70
2022-12-18T06:10:34.890Z,1007.70
2022-12-18T06:11:34.862Z,1007.69
2022-12-18T06:12:34.968Z,1007.64
2022-12-18T06:13:34.855Z,1007.67
2022-12-18T06:14:34.847Z,1007.69
2022-12-18T06:15:34.881Z,1007.67
2022-12-18T06:16:34.903Z,1007.67
2022-12-18T06:17:35.426Z,1007.68
2022-12-18T06:18:34.829Z,1007.62
2022-12-18T06:19:34.818Z,1007.70
2022-12-18T06:20:34.826Z,1007.59
2022-12-18T06:21:34.817Z,1007.65
2022-12-18T06:22:34.797Z,1007.64
2022-12-18T06:23:34.798Z,1007.64
2022-12-18T06:24:34.794Z,1007.74
2022-12-18T06:25:34.805Z,1007.66
2022-12-18T06:26:34.786Z,1007.69
2022-12-18T06:27:34.781Z,1007.70
2022-12-18T06:28:34.878Z,1007.68
2022-12-18T06:29:34.762Z,1007.67
2022-12-18T06:30:34.773Z,1007.64
2022-12-18T06:31:34.777Z,1007.71
2022-12-18T06:32:34.741Z,1007.69
2022-12-18T06:33:34.731Z,1007.76
2022-12-18T06:34:34.738Z,1007.78
2022-12-18T06:35:34.751Z,1007.80
2022-12-18T06:36:34.723Z,1007.81
2022-12-18T06:37:34.710Z,1007.78
2022-12-18T06:38:34.721Z,1007.77
2022-12-18T06:39:34.725Z,1007.80
2022-12-18T06:40:34.706Z,1007.83
2022-12-18T06:41:34.701Z,1007.80
2022-12-18T06:42:34.685Z,1007.85
2022-12-18T06:43:34.691Z,1007.86
2022-12-18T06:44:34.761Z,1007.83
2022-12-18T06:45:34.723Z,1007.85
2022-12-18T06:46:34.676Z,1007.84
2022-12-18T06:47:34.669Z,1007.83
2022-12-18T06:48:34.666Z,1007.84
2022-12-18T06:49:34.652Z,1007.94
2022-12-18T06:50:34.637Z,1007.94
2022-12-18T06:51:34.637Z,1007.93
2022-12-18T06:52:34.647Z,1007.93
2022-12-18T06:53:34.616Z,1008.02
2022-12-18T06:54:34.613Z,1008.06
2022-12-18T06:55:34.613Z,1008.01
2022-12-18T06:56:34.599Z,1008.00
2022-12-18T06:57:34.617Z,1008.06
2022-12-18T06:58:34.598Z,1007.97
2022-12-18T06:59:34.583Z,1007.94
2022-12-18T07:00:34.657Z,1007.96
2022-12-18T07:01:35.740Z,1007.98
2022-12-18T07:02:34.718Z,1007.98
2022-12-18T07:03:35.386Z,1007.98
2022-12-18T07:04:34.565Z,1007.97
2022-12-18T07:05:34.561Z,1008.02
2022-12-18T07:06:34.565Z,1007.99
2022-12-18T07:07:34.541Z,1008.00
2022-12-18T07:08:34.553Z,1008.00
2022-12-18T07:09:34.530Z,1007.99
2022-12-18T07:10:34.529Z,1007.97
2022-12-18T07:11:34.525Z,1007.98
2022-12-18T07:12:34.527Z,1008.04
2022-12-18T07:13:34.514Z,1008.06
2022-12-18T07:14:34.507Z,1007.99
2022-12-18T07:15:34.487Z,1008.14
2022-12-18T07:16:34.638Z,1008.12
2022-12-18T07:17:34.477Z,1008.10
2022-12-18T07:18:34.477Z,1008.07
2022-12-18T07:19:34.466Z,1008.11
2022-12-18T07:20:34.461Z,1008.13
2022-12-18T07:21:34.455Z,1008.11
2022-12-18T07:22:34.445Z,1008.14
2022-12-18T07:23:34.465Z,1008.15
2022-12-18T07:24:34.469Z,1008.15
2022-12-18T07:25:34.426Z,1008.19
2022-12-18T07:26:34.417Z,1008.19
2022-12-18T07:27:34.413Z,1008.20
2022-12-18T07:28:34.406Z,1008.19
2022-12-18T07:29:34.421Z,1008.27
2022-12-18T07:30:34.403Z,1008.26
2022-12-18T07:31:34.462Z,1008.24
2022-12-18T07:32:34.478Z,1008.28
2022-12-18T07:33:34.386Z,1008.26
2022-12-18T07:34:34.389Z,1008.26
2022-12-18T07:35:34.367Z,1008.21
2022-12-18T07:36:34.365Z,1008.21
2022-12-18T07:37:34.352Z,1008.24
2022-12-18T07:38:34.351Z,1008.21
2022-12-18T07:39:34.353Z,1008.31
2022-12-18T07:40:34.341Z,1008.21
2022-12-18T07:41:34.339Z,1008.18
2022-12-18T07:42:34.334Z,1008.20
2022-12-18T07:43:34.338Z,1008.20
2022-12-18T07:44:34.313Z,1008.22
2022-12-18T07:45:34.352Z,1008.16
2022-12-18T07:46:34.337Z,1008.14
2022-12-18T07:47:34.302Z,1008.16
2022-12-18T07:48:34.445Z,1008.13
2022-12-18T07:49:34.296Z,1008.17
2022-12-18T07:50:34.313Z,1008.15
2022-12-18T07:51:34.281Z,1008.16
2022-12-18T07:52:34.266Z,1008.13
2022-12-18T07:53:34.272Z,1008.08
2022-12-18T07:54:34.253Z,1008.10
2022-12-18T07:55:54.703Z,1008.03
2022-12-18T07:56:36.250Z,1008.05
2022-12-18T07:57:50.181Z,1008.14
2022-12-18T07:58:36.238Z,1008.11
2022-12-18T07:59:34.230Z,1008.13
2022-12-18T08:00:34.222Z,1008.07
2022-12-18T08:01:34.335Z,1008.01
2022-12-18T08:02:34.404Z,1008.01
2022-12-18T08:03:34.209Z,1008.00
2022-12-18T08:04:34.299Z,1008.04
2022-12-18T08:05:34.212Z,1008.03
2022-12-18T08:06:34.213Z,1007.96
2022-12-18T08:07:34.181Z,1007.99
2022-12-18T08:08:34.182Z,1007.92
2022-12-18T08:09:34.165Z,1007.94
2022-12-18T08:10:34.156Z,1007.94
2022-12-18T08:11:34.183Z,1007.92
2022-12-18T08:12:34.164Z,1007.89
2022-12-18T08:13:35.161Z,1007.97
2022-12-18T08:14:34.155Z,1007.91
2022-12-18T08:15:34.221Z,1007.91
2022-12-18T08:16:34.234Z,1007.98
2022-12-18T08:17:34.156Z,1007.98
2022-12-18T08:18:34.121Z,1007.94
2022-12-18T08:19:34.115Z,1007.86
2022-12-18T08:20:35.210Z,1007.87
2022-12-18T08:21:34.111Z,1007.88
2022-12-18T08:22:34.095Z,1007.88
2022-12-18T08:23:37.976Z,1007.80
2022-12-18T08:24:35.111Z,1007.75
2022-12-18T08:25:34.095Z,1007.72
2022-12-18T08:26:34.093Z,1007.68
2022-12-18T08:27:34.126Z,1007.64
2022-12-18T08:28:34.118Z,1007.59
2022-12-18T08:29:34.055Z,1007.53
2022-12-18T08:30:34.111Z,1007.57
2022-12-18T08:31:34.132Z,1007.52
2022-12-18T08:32:34.033Z,1007.43
2022-12-18T08:33:34.038Z,1007.44
2022-12-18T08:34:34.029Z,1007.40
2022-12-18T08:35:37.882Z,1007.41
2022-12-18T08:36:36.097Z,1007.35
2022-12-18T08:37:34.055Z,1007.32
2022-12-18T08:38:34.001Z,1007.24
2022-12-18T08:39:33.990Z,1007.23
2022-12-18T08:40:33.970Z,1007.25
2022-12-18T08:41:33.980Z,1007.23
2022-12-18T08:42:33.978Z,1007.32
2022-12-18T08:43:33.957Z,1007.31
2022-12-18T08:44:33.961Z,1007.35
2022-12-18T08:45:33.950Z,1007.31
2022-12-18T08:46:34.057Z,1007.24
2022-12-18T08:47:33.939Z,1007.27
2022-12-18T08:48:33.942Z,1007.23
2022-12-18T08:49:33.940Z,1007.19
2022-12-18T08:50:33.915Z,1007.20
2022-12-18T08:51:33.907Z,1007.12
2022-12-18T08:52:39.824Z,1007.07
2022-12-18T08:53:35.874Z,1007.11
2022-12-18T08:54:34.895Z,1007.09
2022-12-18T08:55:33.876Z,1007.02
2022-12-18T08:56:33.870Z,1007.10
2022-12-18T08:57:33.872Z,1007.10
2022-12-18T08:58:33.861Z,1007.08
2022-12-18T08:59:33.868Z,1006.96
2022-12-18T09:00:33.851Z,1007.00
2022-12-18T09:01:34.015Z,1006.99
2022-12-18T09:02:34.030Z,1006.95
2022-12-18T09:03:33.914Z,1006.91
2022-12-18T09:04:33.857Z,1006.90
2022-12-18T09:05:33.815Z,1006.91
2022-12-18T09:06:33.807Z,1006.88
2022-12-18T09:07:33.804Z,1006.86
2022-12-18T09:08:33.786Z,1006.86
2022-12-18T09:09:33.865Z,1006.89
2022-12-18T09:10:36.504Z,1006.82
2022-12-18T09:11:34.776Z,1006.78
2022-12-18T09:12:33.791Z,1006.79
2022-12-18T09:13:33.755Z,1006.71
2022-12-18T09:14:33.751Z,1006.75
2022-12-18T09:15:33.756Z,1006.83
2022-12-18T09:16:33.814Z,1006.89
2022-12-18T09:17:33.731Z,1006.84
2022-12-18T09:18:33.725Z,1006.78
2022-12-18T09:19:33.719Z,1006.66
2022-12-18T09:20:33.738Z,1006.69
2022-12-18T09:21:35.796Z,1006.73
2022-12-18T09:22:33.687Z,1006.67
2022-12-18T09:23:33.678Z,1006.71
2022-12-18T09:24:33.676Z,1006.64
2022-12-18T09:25:33.773Z,1006.84
2022-12-18T09:26:33.688Z,1006.73
2022-12-18T09:27:33.646Z,1006.69
2022-12-18T09:28:33.642Z,1006.71
2022-12-18T09:29:33.662Z,1006.68
2022-12-18T09:30:33.657Z,1006.72
2022-12-18T09:31:33.645Z,1006.67
2022-12-18T09:32:33.615Z,1006.62
2022-12-18T09:33:33.606Z,1006.61
2022-12-18T09:34:33.610Z,1006.60
2022-12-18T09:35:33.644Z,1006.64
2022-12-18T09:36:33.783Z,1006.54
2022-12-18T09:37:33.591Z,1006.40
2022-12-18T09:38:33.562Z,1006.49
2022-12-18T09:39:33.567Z,1006.49
2022-12-18T09:40:34.158Z,1006.45
2022-12-18T09:41:33.646Z,1006.48
2022-12-18T09:42:33.566Z,1006.55
2022-12-18T09:43:33.546Z,1006.51
2022-12-18T09:44:33.543Z,1006.55
2022-12-18T09:45:33.527Z,1006.58
2022-12-18T09:46:33.612Z,1006.60
2022-12-18T09:47:33.522Z,1006.66
2022-12-18T09:48:33.515Z,1006.70
2022-12-18T09:49:33.506Z,1006.68
2022-12-18T09:50:33.482Z,1006.73
2022-12-18T09:51:33.490Z,1006.70
2022-12-18T09:52:33.471Z,1006.71
2022-12-18T09:53:33.483Z,1006.80
2022-12-18T09:54:33.467Z,1006.86
2022-12-18T09:55:37.147Z,1006.84
2022-12-18T09:56:34.458Z,1006.84
2022-12-18T09:57:33.533Z,1006.83
2022-12-18T09:58:33.459Z,1006.74
2022-12-18T09:59:33.443Z,1006.77
2022-12-18T10:00:33.427Z,1006.70
2022-12-18T10:01:41.528Z,1006.65
2022-12-18T10:02:35.485Z,1006.65
2022-12-18T10:03:33.418Z,1006.56
2022-12-18T10:04:33.481Z,1006.58
2022-12-18T10:05:33.384Z,1006.55
2022-12-18T10:06:33.386Z,1006.52
2022-12-18T10:07:33.381Z,1006.54
2022-12-18T10:08:33.390Z,1006.49
2022-12-18T10:09:33.381Z,1006.47
2022-12-18T10:10:33.359Z,1006.50
2022-12-18T10:11:33.342Z,1006.41
2022-12-18T10:12:33.339Z,1006.42
2022-12-18T10:13:33.431Z,1006.48
2022-12-18T10:14:33.332Z,1006.53
2022-12-18T10:15:33.377Z,1006.49
2022-12-18T10:16:33.325Z,1006.47
2022-12-18T10:17:33.308Z,1006.53
2022-12-18T10:18:33.306Z,1006.43
2022-12-18T10:19:33.291Z,1006.34
2022-12-18T10:20:33.322Z,1006.29
2022-12-18T10:21:34.282Z,1006.27
2022-12-18T10:22:33.276Z,1006.22
2022-12-18T10:23:33.263Z,1006.28
2022-12-18T10:24:33.264Z,1006.29
2022-12-18T10:25:33.253Z,1006.30
2022-12-18T10:26:34.242Z,1006.30
2022-12-18T10:27:33.239Z,1006.32
2022-12-18T10:28:33.230Z,1006.28
2022-12-18T10:29:39.113Z,1006.30
2022-12-18T10:30:34.322Z,1006.34
2022-12-18T10:31:33.238Z,1006.30
2022-12-18T10:32:33.192Z,1006.34
2022-12-18T10:33:33.198Z,1006.37
2022-12-18T10:34:33.191Z,1006.29
2022-12-18T10:35:33.168Z,1006.33
2022-12-18T10:36:33.222Z,1006.41
2022-12-18T10:37:33.166Z,1006.44
2022-12-18T10:38:33.157Z,1006.35
2022-12-18T10:39:33.157Z,1006.39
2022-12-18T10:40:34.433Z,1006.36
2022-12-18T10:41:33.134Z,1006.29
2022-12-18T10:42:33.130Z,1006.36
2022-12-18T10:43:33.126Z,1006.32
2022-12-18T10:44:33.119Z,1006.29
2022-12-18T10:45:33.111Z,1006.28
2022-12-18T10:46:39.206Z,1006.19
2022-12-18T10:47:34.185Z,1006.17
2022-12-18T10:48:33.090Z,1006.17
2022-12-18T10:49:33.091Z,1006.21
2022-12-18T10:51:01.817Z,1006.16
2022-12-18T10:51:35.069Z,1006.09
2022-12-18T10:52:33.069Z,1006.08
2022-12-18T10:53:33.050Z,1006.04
2022-12-18T10:54:34.049Z,1006.05
2022-12-18T10:55:33.033Z,1006.07
2022-12-18T10:56:33.023Z,1006.04
2022-12-18T10:57:33.042Z,1006.00
2022-12-18T10:58:33.015Z,1005.92
2022-12-18T10:59:32.998Z,1005.91
2022-12-18T11:00:32.989Z,1005.91
2022-12-18T11:01:33.086Z,1005.90
2022-12-18T11:02:33.227Z,1005.81
2022-12-18T11:03:33.161Z,1005.86
2022-12-18T11:04:33.051Z,1005.77
2022-12-18T11:05:32.981Z,1005.79
2022-12-18T11:06:32.954Z,1005.73
2022-12-18T11:07:32.958Z,1005.71
2022-12-18T11:08:32.943Z,1005.70
2022-12-18T11:09:32.953Z,1005.71
2022-12-18T11:10:32.930Z,1005.61
2022-12-18T11:11:32.914Z,1005.67
2022-12-18T11:12:32.908Z,1005.62
2022-12-18T11:13:32.907Z,1005.56
2022-12-18T11:14:33.037Z,1005.57
2022-12-18T11:15:32.895Z,1005.56
2022-12-18T11:16:32.927Z,1005.51
2022-12-18T11:17:32.877Z,1005.48
2022-12-18T11:18:32.875Z,1005.49
2022-12-18T11:19:32.974Z,1005.50
2022-12-18T11:20:32.868Z,1005.52
2022-12-18T11:21:32.873Z,1005.42
2022-12-18T11:22:32.837Z,1005.46
2022-12-18T11:23:32.838Z,1005.45
2022-12-18T11:24:32.834Z,1005.45
2022-12-18T11:25:34.627Z,1005.43
2022-12-18T11:26:32.815Z,1005.39
2022-12-18T11:27:32.797Z,1005.37
2022-12-18T11:28:32.807Z,1005.31
2022-12-18T11:29:32.821Z,1005.34
2022-12-18T11:30:32.787Z,1005.28
2022-12-18T11:31:32.899Z,1005.23
2022-12-18T11:32:32.778Z,1005.25
2022-12-18T11:33:32.764Z,1005.17
2022-12-18T11:34:32.784Z,1005.17
2022-12-18T11:35:32.852Z,1005.24
2022-12-18T11:36:32.818Z,1005.28
2022-12-18T11:37:32.747Z,1005.26
2022-12-18T11:38:32.736Z,1005.25
2022-12-18T11:39:32.727Z,1005.23
2022-12-18T11:40:36.524Z,1005.27
2022-12-18T11:41:34.727Z,1005.24
2022-12-18T11:42:32.712Z,1005.27
2022-12-18T11:43:32.706Z,1005.41
2022-12-18T11:44:32.691Z,1005.35
2022-12-18T11:45:32.676Z,1005.42
2022-12-18T11:46:33.709Z,1005.40
2022-12-18T11:47:32.728Z,1005.33
2022-12-18T11:48:32.667Z,1005.39
2022-12-18T11:49:32.663Z,1005.31
2022-12-18T11:50:32.650Z,1005.21
2022-12-18T11:51:32.733Z,1005.23
2022-12-18T11:52:32.708Z,1005.15
2022-12-18T11:53:32.631Z,1005.13
2022-12-18T11:54:32.624Z,1005.09
2022-12-18T11:55:32.615Z,1005.04
2022-12-18T11:56:32.615Z,1005.00
2022-12-18T11:57:32.643Z,1004.91
2022-12-18T11:58:32.603Z,1004.90
2022-12-18T11:59:32.587Z,1004.84
2022-12-18T12:00:32.583Z,1004.80
2022-12-18T12:01:32.601Z,1004.79
2022-12-18T12:02:32.745Z,1004.71
2022-12-18T12:03:32.624Z,1004.73
2022-12-18T12:04:32.638Z,1004.77
2022-12-18T12:05:32.538Z,1004.66